Altenwald, Pennsylvania
Current Conditions -  °F | °C
As of 11:53 PM on Friday 31 Oct 2014 (Local Time) from KHGR Reporting Station
Overcast Overcast  
Wind Chill: 45°   Ceiling: 6500
Heat Index: 47°   Visibility: 10mi
Dew Point: 37°   Wind: 5mph
Humidity: 68%   Direction: 350°N
Pressure: 29.86"   Gusts: NA
Location:  39.7777°N, 77.5693°W
Report Text: KHGR 010353Z AUTO 35004KT 10SM BKN065 OVC110 08/03 A2986 RMK AO2 SLP123 T00830028
Loading
Personal Weather Stations






























Interactive Weather Map
Tropical Storm Tracking
New forecast layout! Learn more

10-Day Weather Forecast

Advertisements
Track Severe Weather on mobile